createdAt,value
2023-02-23T00:00:15.096Z,99546.19
2023-02-23T00:02:50.491Z,99548.72
2023-02-23T00:05:25.764Z,99552.66
2023-02-23T00:07:59.190Z,99557.94
2023-02-23T00:10:33.586Z,99547.13
2023-02-23T00:13:07.314Z,99549.78
2023-02-23T00:15:40.987Z,99555.81
2023-02-23T00:18:14.444Z,99556.78
2023-02-23T00:20:58.714Z,99557.63
2023-02-23T00:23:32.037Z,99554.88
2023-02-23T00:26:05.443Z,99552.06
2023-02-23T00:28:38.744Z,99559.19
2023-02-23T00:31:12.858Z,99556.22
2023-02-23T00:33:46.686Z,99562.88
2023-02-23T00:36:23.170Z,99551.06
2023-02-23T00:38:58.428Z,99556.53
2023-02-23T00:41:32.165Z,99559.50
2023-02-23T00:44:05.655Z,99556.66
2023-02-23T00:46:39.616Z,99558.56
2023-02-23T00:49:14.531Z,99552.91
2023-02-23T00:51:49.321Z,99543.06
2023-02-23T00:54:23.124Z,99548.75
2023-02-23T00:56:56.206Z,99556.50
2023-02-23T00:59:30.734Z,99549.09
2023-02-23T01:02:04.108Z,99539.22
2023-02-23T01:04:37.621Z,99552.03
2023-02-23T01:07:13.173Z,99552.03
2023-02-23T01:09:46.753Z,99549.41
2023-02-23T01:12:21.642Z,99551.09
2023-02-23T01:14:55.222Z,99557.84
2023-02-23T01:17:30.673Z,99555.19
2023-02-23T01:20:13.205Z,99550.00
2023-02-23T01:22:50.532Z,99549.41
2023-02-23T01:25:24.589Z,99552.00
2023-02-23T01:27:58.022Z,99558.13
2023-02-23T01:30:31.785Z,99551.38
2023-02-23T01:33:05.330Z,99550.09
2023-02-23T01:35:38.500Z,99551.84
2023-02-23T01:38:13.880Z,99553.44
2023-02-23T01:40:47.388Z,99556.28
2023-02-23T01:43:26.194Z,99552.03
2023-02-23T01:45:59.948Z,99560.50
2023-02-23T01:48:37.231Z,99557.41
2023-02-23T01:51:14.074Z,99556.91
2023-02-23T01:53:53.722Z,99554.72
2023-02-23T01:56:31.606Z,99539.31
2023-02-23T01:59:07.645Z,99562.75
2023-02-23T02:01:42.149Z,99563.16
2023-02-23T02:04:16.854Z,99563.38
2023-02-23T02:06:53.713Z,99565.63
2023-02-23T02:09:28.992Z,99570.06
2023-02-23T02:12:02.751Z,99569.66
2023-02-23T02:14:37.301Z,99576.00
2023-02-23T02:17:25.611Z,99579.81
2023-02-23T02:20:38.548Z,99574.91
2023-02-23T02:23:41.941Z,99583.19
2023-02-23T02:26:25.775Z,99573.56
2023-02-23T02:29:31.990Z,99578.31
2023-02-23T02:32:30.638Z,99580.13
2023-02-23T02:35:34.215Z,99591.19
2023-02-23T02:38:28.405Z,99582.47
2023-02-23T02:41:07.644Z,99581.22
2023-02-23T02:43:47.924Z,99584.13
2023-02-23T02:46:27.699Z,99586.06
2023-02-23T02:49:08.835Z,99585.72
2023-02-23T02:51:48.942Z,99588.16
2023-02-23T02:54:29.126Z,99597.19
2023-02-23T02:57:04.776Z,99599.88
2023-02-23T03:00:02.589Z,99597.72
2023-02-23T03:02:55.956Z,99592.06
2023-02-23T03:05:56.696Z,99601.00
2023-02-23T03:08:55.791Z,99599.44
2023-02-23T03:11:56.415Z,99585.38
2023-02-23T03:14:57.354Z,99598.75
2023-02-23T03:17:55.902Z,99605.00
2023-02-23T03:20:59.860Z,99557.19
2023-02-23T03:24:02.780Z,99602.03
2023-02-23T03:26:59.841Z,99606.00
2023-02-23T03:29:55.684Z,99607.91
2023-02-23T03:32:52.318Z,99607.63
2023-02-23T03:35:49.777Z,99611.66
2023-02-23T03:38:46.807Z,99609.16
2023-02-23T03:41:41.200Z,99608.59
2023-02-23T03:44:35.712Z,99614.97
2023-02-23T03:47:30.737Z,99600.03
2023-02-23T03:50:25.721Z,99610.03
2023-02-23T03:53:19.322Z,99611.94
2023-02-23T03:56:13.499Z,99625.34
2023-02-23T03:59:09.358Z,99620.72
2023-02-23T04:02:01.721Z,99620.59
2023-02-23T04:04:53.544Z,99618.00
2023-02-23T04:07:45.003Z,99626.41
2023-02-23T04:10:35.941Z,99615.75
2023-02-23T04:13:16.664Z,99625.16
2023-02-23T04:15:52.812Z,99620.19
2023-02-23T04:18:31.040Z,99620.06
2023-02-23T04:21:05.265Z,99619.19
2023-02-23T04:23:40.811Z,99615.91
2023-02-23T04:26:14.336Z,99617.16
2023-02-23T04:28:47.742Z,99618.22
2023-02-23T04:31:25.023Z,99617.56
2023-02-23T04:34:00.402Z,99614.13
2023-02-23T04:36:33.684Z,99629.84
2023-02-23T04:39:06.933Z,99622.47
2023-02-23T04:41:40.193Z,99628.53
2023-02-23T04:44:13.337Z,99629.75
2023-02-23T04:46:46.872Z,99629.75
2023-02-23T04:49:21.731Z,99606.16
2023-02-23T04:51:55.354Z,99633.34
2023-02-23T04:54:28.803Z,99633.72
2023-02-23T04:57:02.147Z,99573.91
2023-02-23T04:59:35.721Z,99628.66
2023-02-23T05:02:09.489Z,99639.47
2023-02-23T05:04:44.712Z,99640.88
2023-02-23T05:07:18.984Z,99640.13
2023-02-23T05:09:51.992Z,99642.53
2023-02-23T05:12:28.209Z,99641.22
2023-02-23T05:15:02.037Z,99639.03
2023-02-23T05:17:41.233Z,99649.69
2023-02-23T05:20:16.602Z,99653.56
2023-02-23T05:22:49.810Z,99654.88
2023-02-23T05:25:23.900Z,99653.47
2023-02-23T05:27:57.217Z,99656.94
2023-02-23T05:30:30.678Z,99662.50
2023-02-23T05:33:04.330Z,99672.28
2023-02-23T05:35:42.172Z,99678.47
2023-02-23T05:38:15.607Z,99670.44
2023-02-23T05:40:49.427Z,99689.69
2023-02-23T05:43:22.592Z,99689.50
2023-02-23T05:45:55.804Z,99695.38
2023-02-23T05:48:29.505Z,99691.31
2023-02-23T05:51:05.453Z,99706.34
2023-02-23T05:53:39.759Z,99711.53
2023-02-23T05:56:18.259Z,99700.84
2023-02-23T05:58:52.971Z,99709.81
2023-02-23T06:01:28.231Z,99712.34
2023-02-23T06:04:03.109Z,99729.03
2023-02-23T06:06:38.877Z,99703.78
2023-02-23T06:09:12.196Z,99726.91
2023-02-23T06:11:45.795Z,99732.00
2023-02-23T06:14:19.293Z,99727.75
2023-02-23T06:16:52.724Z,99730.03
2023-02-23T06:19:26.530Z,99739.00
2023-02-23T06:22:01.661Z,99673.66
2023-02-23T06:24:35.521Z,99741.16
2023-02-23T06:27:09.061Z,99746.34
2023-02-23T06:29:42.694Z,99741.16
2023-02-23T06:32:16.289Z,99738.22
2023-02-23T06:34:49.999Z,99741.44
2023-02-23T06:37:25.203Z,99754.03
2023-02-23T06:39:58.795Z,99750.81
2023-02-23T06:42:32.214Z,99745.13
2023-02-23T06:45:06.608Z,99749.69
2023-02-23T06:47:40.116Z,99742.69
2023-02-23T06:50:15.062Z,99753.06
2023-02-23T06:52:49.911Z,99763.25
2023-02-23T06:55:23.281Z,99764.75
2023-02-23T06:57:56.520Z,99766.56
2023-02-23T07:00:30.568Z,99760.44
2023-02-23T07:03:04.035Z,99758.81
2023-02-23T07:05:37.787Z,99766.38
2023-02-23T07:08:12.616Z,99751.91
2023-02-23T07:10:47.187Z,99768.53
2023-02-23T07:13:22.089Z,99776.22
2023-02-23T07:15:58.733Z,99762.13
2023-02-23T07:18:32.372Z,99770.91
2023-02-23T07:21:06.000Z,99775.13
2023-02-23T07:23:40.659Z,99766.44
2023-02-23T07:26:15.893Z,99773.59
2023-02-23T07:28:49.234Z,99772.03
2023-02-23T07:31:22.836Z,99772.75
2023-02-23T07:33:56.566Z,99777.72
2023-02-23T07:36:30.373Z,99774.38
2023-02-23T07:39:05.564Z,99774.06
2023-02-23T07:41:38.954Z,99787.38
2023-02-23T07:44:12.268Z,99786.31
2023-02-23T07:46:46.517Z,99781.56
2023-02-23T07:49:20.176Z,99768.53
2023-02-23T07:51:54.044Z,99789.16
2023-02-23T07:54:29.011Z,99781.72
2023-02-23T07:57:02.319Z,99787.91
2023-02-23T07:59:35.621Z,99794.47
2023-02-23T08:02:09.049Z,99782.25
2023-02-23T08:04:43.205Z,99788.56
2023-02-23T08:07:16.932Z,99795.72
2023-02-23T08:09:51.863Z,99799.56
2023-02-23T08:12:25.645Z,99803.56
2023-02-23T08:14:59.501Z,99807.41
2023-02-23T08:17:32.716Z,99812.91
2023-02-23T08:20:07.500Z,99809.00
2023-02-23T08:22:49.479Z,99808.47
2023-02-23T08:25:24.495Z,99814.16
2023-02-23T08:27:59.661Z,99800.94
2023-02-23T08:30:33.603Z,99812.91
2023-02-23T08:33:07.367Z,99802.16
2023-02-23T08:35:40.953Z,99815.03
2023-02-23T08:38:16.599Z,99810.28
2023-02-23T08:40:51.519Z,99785.78
2023-02-23T08:43:24.852Z,99815.19
2023-02-23T08:45:58.073Z,99814.16
2023-02-23T08:48:31.600Z,99798.47
2023-02-23T08:51:05.483Z,99774.34
2023-02-23T08:53:38.913Z,99826.03
2023-02-23T08:56:15.404Z,99824.06
2023-02-23T08:58:48.661Z,99811.91
2023-02-23T09:01:23.127Z,99823.25
2023-02-23T09:03:56.736Z,99808.09
2023-02-23T09:06:31.040Z,99815.69
2023-02-23T09:09:04.724Z,99807.28
2023-02-23T09:11:39.509Z,99821.53
2023-02-23T09:14:13.373Z,99831.31
2023-02-23T09:16:47.232Z,99818.41
2023-02-23T09:19:20.765Z,99829.47
2023-02-23T09:21:54.789Z,99810.81
2023-02-23T09:24:28.132Z,99820.22
2023-02-23T09:27:02.878Z,99821.41
2023-02-23T09:29:38.080Z,99818.44
2023-02-23T09:32:12.429Z,99811.41
2023-02-23T09:34:48.726Z,99819.59
2023-02-23T09:37:22.207Z,99819.19
2023-02-23T09:39:57.900Z,99817.78
2023-02-23T09:42:40.083Z,99807.84
2023-02-23T09:45:30.564Z,99807.28
2023-02-23T09:48:13.328Z,99832.47
2023-02-23T09:50:50.257Z,99824.78
2023-02-23T09:53:36.932Z,99811.47
2023-02-23T09:56:15.755Z,99823.66
2023-02-23T09:58:51.246Z,99822.94
2023-02-23T10:01:46.321Z,99823.47
2023-02-23T10:04:24.273Z,99802.59
2023-02-23T10:07:08.290Z,99825.81
2023-02-23T10:09:55.377Z,99816.91
2023-02-23T10:12:36.498Z,99819.53
2023-02-23T10:15:33.660Z,99817.66
2023-02-23T10:18:20.615Z,99812.41
2023-02-23T10:21:04.280Z,99809.81
2023-02-23T10:23:43.423Z,99808.06
2023-02-23T10:26:19.706Z,99778.75
2023-02-23T10:28:55.291Z,99800.72
2023-02-23T10:31:35.585Z,99789.88
2023-02-23T10:34:15.465Z,99787.00
2023-02-23T10:36:54.720Z,99796.06
2023-02-23T10:39:28.987Z,99797.63
2023-02-23T10:42:06.464Z,99760.97
2023-02-23T10:44:39.972Z,99796.81
2023-02-23T10:47:18.864Z,99800.53
2023-02-23T10:49:54.095Z,99796.28
2023-02-23T10:52:34.489Z,99791.78
2023-02-23T10:55:09.679Z,99775.59
2023-02-23T10:57:43.374Z,99788.53
2023-02-23T11:00:30.774Z,99780.19
2023-02-23T11:03:19.914Z,99777.13
2023-02-23T11:05:53.876Z,99783.56
2023-02-23T11:08:32.104Z,99783.63
2023-02-23T11:11:26.337Z,99778.44
2023-02-23T11:14:09.992Z,99742.47
2023-02-23T11:16:43.841Z,99772.44
2023-02-23T11:19:25.442Z,99771.22
2023-02-23T11:21:59.014Z,99770.34
2023-02-23T11:24:37.652Z,99763.50
2023-02-23T11:27:23.165Z,99764.22
2023-02-23T11:30:00.301Z,99758.50
2023-02-23T11:32:42.596Z,99743.41
2023-02-23T11:35:30.531Z,99760.72
2023-02-23T11:38:17.141Z,99750.56
2023-02-23T11:41:01.130Z,99756.00
2023-02-23T11:43:36.177Z,99755.75
2023-02-23T11:46:10.377Z,99754.56
2023-02-23T11:48:49.504Z,99757.22
2023-02-23T11:51:28.695Z,99744.75
2023-02-23T11:54:05.488Z,99757.22
2023-02-23T11:56:39.432Z,99762.44
2023-02-23T11:59:20.530Z,99761.94
2023-02-23T12:01:57.666Z,99760.97
2023-02-23T12:04:37.122Z,99766.75
2023-02-23T12:07:38.951Z,99768.97
2023-02-23T12:10:20.580Z,99755.66
2023-02-23T12:13:04.588Z,99759.91
2023-02-23T12:15:45.091Z,99758.19
2023-02-23T12:18:34.271Z,99747.88
2023-02-23T12:21:19.228Z,99751.28
2023-02-23T12:24:05.496Z,99755.66
2023-02-23T12:26:46.038Z,99758.53
2023-02-23T12:29:30.487Z,99758.53
2023-02-23T12:32:10.268Z,99767.28
2023-02-23T12:34:49.264Z,99768.72
2023-02-23T12:37:37.066Z,99769.06
2023-02-23T12:40:20.391Z,99772.09
2023-02-23T12:43:01.485Z,99765.69
2023-02-23T12:45:39.595Z,99769.69
2023-02-23T12:48:28.700Z,99765.78
2023-02-23T12:51:06.580Z,99763.50
2023-02-23T12:53:43.214Z,99768.69
2023-02-23T12:56:34.113Z,99747.00
2023-02-23T12:59:22.012Z,99770.03
2023-02-23T13:01:59.502Z,99774.38
2023-02-23T13:04:51.290Z,99771.59
2023-02-23T13:07:38.193Z,99769.88
2023-02-23T13:10:23.645Z,99726.47
2023-02-23T13:13:16.346Z,99772.28
2023-02-23T13:15:58.964Z,99764.41
2023-02-23T13:18:38.886Z,99769.75
2023-02-23T13:21:21.504Z,99758.47
2023-02-23T13:24:04.583Z,99758.84
2023-02-23T13:26:47.535Z,99763.41
2023-02-23T13:29:34.569Z,99756.03
2023-02-23T13:32:13.808Z,99752.13
2023-02-23T13:34:53.460Z,99752.38
2023-02-23T13:37:32.264Z,99753.34
2023-02-23T13:40:22.200Z,99739.06
2023-02-23T13:43:07.758Z,99756.00
2023-02-23T13:45:59.798Z,99755.00
2023-02-23T13:48:56.239Z,99756.00
2023-02-23T13:51:37.606Z,99761.31
2023-02-23T13:54:25.688Z,99762.53
2023-02-23T13:57:01.719Z,99767.13
2023-02-23T13:59:43.156Z,99755.06
2023-02-23T14:02:37.737Z,99775.88
2023-02-23T14:05:20.215Z,99770.78
2023-02-23T14:07:56.184Z,99763.75
2023-02-23T14:10:36.894Z,99766.16
2023-02-23T14:13:28.122Z,99770.66
2023-02-23T14:16:18.972Z,99772.47
2023-02-23T14:19:07.668Z,99772.00
2023-02-23T14:21:52.409Z,99775.50
2023-02-23T14:24:27.491Z,99780.00
2023-02-23T14:27:39.888Z,99754.34
2023-02-23T14:30:22.779Z,99777.47
2023-02-23T14:32:56.614Z,99778.06
2023-02-23T14:35:45.082Z,99780.97
2023-02-23T14:38:45.697Z,99767.66
2023-02-23T14:41:23.855Z,99777.97
2023-02-23T14:44:03.993Z,99787.38
2023-02-23T14:46:38.503Z,99771.53
2023-02-23T14:49:20.503Z,99775.63
2023-02-23T14:51:56.565Z,99766.56
2023-02-23T14:54:33.995Z,99775.06
2023-02-23T14:57:18.731Z,99775.53
2023-02-23T14:59:57.369Z,99780.50
2023-02-23T15:02:31.666Z,99784.16
2023-02-23T15:05:16.064Z,99788.50
2023-02-23T15:07:52.053Z,99789.84
2023-02-23T15:10:29.632Z,99791.91
2023-02-23T15:13:11.203Z,99786.56
2023-02-23T15:15:47.466Z,99777.50
2023-02-23T15:18:25.561Z,99783.06
2023-02-23T15:20:59.252Z,99778.56
2023-02-23T15:23:38.756Z,99781.50
2023-02-23T15:26:24.416Z,99790.22
2023-02-23T15:29:04.695Z,99788.91
2023-02-23T15:31:40.849Z,99787.06
2023-02-23T15:34:14.648Z,99788.78
2023-02-23T15:36:55.681Z,99789.88
2023-02-23T15:39:38.701Z,99804.03
2023-02-23T15:42:16.468Z,99793.50
2023-02-23T15:44:56.815Z,99799.69
2023-02-23T15:47:34.942Z,99803.44
2023-02-23T15:50:20.132Z,99805.25
2023-02-23T15:53:03.430Z,99804.53
2023-02-23T15:55:39.236Z,99783.72
2023-02-23T15:58:19.707Z,99808.78
2023-02-23T16:00:58.268Z,99814.22
2023-02-23T16:03:34.632Z,99817.00
2023-02-23T16:06:22.873Z,99814.47
2023-02-23T16:09:02.407Z,99820.75
2023-02-23T16:11:38.177Z,99821.84
2023-02-23T16:14:17.359Z,99823.44
2023-02-23T16:17:09.883Z,99828.88
2023-02-23T16:19:45.529Z,99828.00
2023-02-23T16:22:24.786Z,99831.91
2023-02-23T16:25:02.169Z,99842.44
2023-02-23T16:27:39.165Z,99837.59
2023-02-23T16:30:23.465Z,99844.25
2023-02-23T16:33:07.276Z,99838.19
2023-02-23T16:35:46.710Z,99849.59
2023-02-23T16:38:26.584Z,99846.19
2023-02-23T16:41:00.048Z,99846.66
2023-02-23T16:43:36.121Z,99839.50
2023-02-23T16:46:09.814Z,99851.63
2023-02-23T16:48:43.716Z,99859.59
2023-02-23T16:51:19.774Z,99860.81
2023-02-23T16:53:53.654Z,99861.03
2023-02-23T16:56:28.573Z,99859.13
2023-02-23T16:59:05.271Z,99843.63
2023-02-23T17:01:38.649Z,99870.47
2023-02-23T17:04:15.512Z,99874.84
2023-02-23T17:06:57.814Z,99867.22
2023-02-23T17:09:31.405Z,99870.00
2023-02-23T17:12:06.146Z,99848.66
2023-02-23T17:14:41.280Z,99875.31
2023-02-23T17:17:16.323Z,99872.91
2023-02-23T17:19:49.664Z,99867.19
2023-02-23T17:22:22.845Z,99880.38
2023-02-23T17:24:56.288Z,99871.50
2023-02-23T17:27:29.868Z,99883.50
2023-02-23T17:30:05.316Z,99886.41
2023-02-23T17:32:38.856Z,99888.19
2023-02-23T17:35:12.549Z,99881.22
2023-02-23T17:37:46.057Z,99880.84
2023-02-23T17:40:26.414Z,99850.19
2023-02-23T17:43:01.068Z,99890.03
2023-02-23T17:45:37.203Z,99830.97
2023-02-23T17:48:10.763Z,99888.19
2023-02-23T17:50:44.088Z,99894.28
2023-02-23T17:53:17.417Z,99895.66
2023-02-23T17:55:51.247Z,99893.06
2023-02-23T17:58:24.815Z,99896.78
2023-02-23T18:01:01.291Z,99898.09
2023-02-23T18:03:36.965Z,99905.88
2023-02-23T18:06:12.543Z,99900.91
2023-02-23T18:08:46.036Z,99901.28
2023-02-23T18:11:19.944Z,99898.03
2023-02-23T18:13:53.232Z,99842.56
2023-02-23T18:16:27.836Z,99909.63
2023-02-23T18:19:01.295Z,99920.81
2023-02-23T18:21:39.201Z,99910.91
2023-02-23T18:24:13.691Z,99922.50
2023-02-23T18:26:47.203Z,99915.81
2023-02-23T18:29:20.412Z,99919.44
2023-02-23T18:31:56.171Z,99917.97
2023-02-23T18:34:31.058Z,99910.72
2023-02-23T18:37:05.719Z,99917.44
2023-02-23T18:39:39.261Z,99920.41
2023-02-23T18:42:12.901Z,99915.19
2023-02-23T18:44:46.197Z,99922.25
2023-02-23T18:47:21.175Z,99927.88
2023-02-23T18:49:54.835Z,99932.56
2023-02-23T18:52:28.264Z,99937.53
2023-02-23T18:55:01.628Z,99901.88
2023-02-23T18:57:35.244Z,99940.09
2023-02-23T19:00:13.291Z,99919.53
2023-02-23T19:02:48.836Z,99943.09
2023-02-23T19:05:22.819Z,99948.84
2023-02-23T19:07:56.458Z,99948.41
2023-02-23T19:10:30.392Z,99953.84
2023-02-23T19:13:08.809Z,99952.56
2023-02-23T19:15:42.799Z,99951.41
2023-02-23T19:18:18.378Z,99950.47
2023-02-23T19:20:55.521Z,99958.66
2023-02-23T19:23:29.685Z,99967.81
2023-02-23T19:26:03.404Z,99970.22
2023-02-23T19:28:36.970Z,99958.88
2023-02-23T19:31:17.123Z,99973.22
2023-02-23T19:33:52.033Z,99983.09
2023-02-23T19:36:29.872Z,99976.81
2023-02-23T19:39:15.626Z,99986.50
2023-02-23T19:41:48.890Z,99983.09
2023-02-23T19:44:22.331Z,99990.09
2023-02-23T19:46:55.614Z,99964.31
2023-02-23T19:49:30.857Z,99985.00
2023-02-23T19:52:04.428Z,99985.22
2023-02-23T19:54:38.734Z,99982.47
2023-02-23T19:57:11.961Z,99977.59
2023-02-23T19:59:45.728Z,99983.13
2023-02-23T20:02:19.428Z,99981.19
2023-02-23T20:04:54.478Z,99985.97
2023-02-23T20:07:28.048Z,99987.88
2023-02-23T20:10:05.520Z,99983.19
2023-02-23T20:12:39.848Z,99970.69
2023-02-23T20:15:14.889Z,99981.28
2023-02-23T20:17:51.220Z,99977.59
2023-02-23T20:20:28.762Z,99980.03
2023-02-23T20:23:01.933Z,99984.06
2023-02-23T20:25:35.755Z,99989.91
2023-02-23T20:28:09.326Z,99989.81
2023-02-23T20:30:47.225Z,99996.03
2023-02-23T20:33:20.953Z,99987.25
2023-02-23T20:35:56.017Z,99988.59
2023-02-23T20:38:29.431Z,99982.34
2023-02-23T20:41:03.683Z,99981.63
2023-02-23T20:43:38.017Z,99972.16
2023-02-23T20:46:11.697Z,99977.47
2023-02-23T20:48:46.117Z,99971.94
2023-02-23T20:51:21.460Z,99978.31
2023-02-23T20:53:55.102Z,99980.13
2023-02-23T20:56:32.849Z,99974.72
2023-02-23T20:59:11.030Z,99975.03
2023-02-23T21:01:45.334Z,99980.75
2023-02-23T21:04:18.647Z,99974.81
2023-02-23T21:06:53.304Z,99980.84
2023-02-23T21:09:26.785Z,99978.00
2023-02-23T21:12:06.039Z,99968.00
2023-02-23T21:14:39.919Z,99981.91
2023-02-23T21:17:13.430Z,99965.78
2023-02-23T21:19:47.114Z,99969.84
2023-02-23T21:22:21.726Z,99969.19
2023-02-23T21:24:54.994Z,99980.75
2023-02-23T21:27:28.411Z,99978.88
2023-02-23T21:30:01.913Z,99981.19
2023-02-23T21:32:41.283Z,99978.97
2023-02-23T21:35:15.388Z,99983.00
2023-02-23T21:37:51.915Z,99956.09
2023-02-23T21:40:25.324Z,99979.38
2023-02-23T21:43:01.150Z,99976.53
2023-02-23T21:45:34.668Z,99918.09
2023-02-23T21:48:08.075Z,99982.69
2023-02-23T21:50:41.549Z,99983.41
2023-02-23T21:53:16.258Z,99984.19
2023-02-23T21:55:49.538Z,99974.38
2023-02-23T21:58:24.022Z,99978.75
2023-02-23T22:00:57.367Z,99976.53
2023-02-23T22:03:31.368Z,99980.13
2023-02-23T22:06:04.826Z,99987.34
2023-02-23T22:08:39.799Z,99993.91
2023-02-23T22:11:17.545Z,99982.47
2023-02-23T22:13:59.404Z,99983.72
2023-02-23T22:16:36.630Z,99975.34
2023-02-23T22:19:10.006Z,99980.63
2023-02-23T22:21:44.507Z,99973.09
2023-02-23T22:24:19.693Z,99950.25
2023-02-23T22:26:55.123Z,99979.56
2023-02-23T22:29:28.743Z,99970.25
2023-02-23T22:32:02.487Z,99978.84
2023-02-23T22:34:35.680Z,99978.63
2023-02-23T22:37:09.013Z,99971.81
2023-02-23T22:39:44.164Z,99972.69
2023-02-23T22:42:17.692Z,99971.31
2023-02-23T22:44:50.792Z,99944.22
2023-02-23T22:47:24.267Z,99970.44
2023-02-23T22:49:57.554Z,99971.81
2023-02-23T22:52:32.421Z,99965.25
2023-02-23T22:55:08.273Z,99962.47
2023-02-23T22:57:41.836Z,99966.22
2023-02-23T23:00:19.506Z,99972.69
2023-02-23T23:02:52.754Z,99962.06
2023-02-23T23:05:25.908Z,99961.63
2023-02-23T23:07:59.247Z,99956.00
2023-02-23T23:10:34.458Z,99946.44
2023-02-23T23:13:08.649Z,99949.31
2023-02-23T23:15:43.112Z,99949.97
2023-02-23T23:18:20.794Z,99944.53
2023-02-23T23:20:55.452Z,99923.63
2023-02-23T23:23:28.984Z,99951.25
2023-02-23T23:26:03.877Z,99924.47
2023-02-23T23:28:40.233Z,99945.47
2023-02-23T23:31:13.566Z,99946.97
2023-02-23T23:33:48.761Z,99948.69
2023-02-23T23:36:23.670Z,99945.38
2023-02-23T23:38:57.953Z,99944.00
2023-02-23T23:41:35.462Z,99925.09
2023-02-23T23:44:10.733Z,99942.31
2023-02-23T23:46:45.640Z,99943.47
2023-02-23T23:49:21.571Z,99935.84
2023-02-23T23:51:57.199Z,99962.06
2023-02-23T23:54:32.425Z,99950.38
2023-02-23T23:57:08.292Z,99957.16
2023-02-23T23:59:46.110Z,99954.19
